sensor_id;sensor_type;location;lat;lon;timestamp;pressure;altitude;pressure_sealevel;temperature;humidity
31092;BME280;67728;53.122;12.776;2024-03-23T00:54:13;100099.00;;;6.77;93.48
31092;BME280;67728;53.122;12.776;2024-03-23T00:55:45;100091.84;;;6.77;94.23
31092;BME280;67728;53.122;12.776;2024-03-23T00:57:15;100102.50;;;6.77;94.10
31092;BME280;67728;53.122;12.776;2024-03-23T00:58:46;100096.31;;;6.77;93.97
31092;BME280;67728;53.122;12.776;2024-03-23T01:00:18;100083.88;;;6.77;93.66
31092;BME280;67728;53.122;12.776;2024-03-23T01:01:48;100089.19;;;6.77;94.12
31092;BME280;67728;53.122;12.776;2024-03-23T01:03:19;100083.88;;;6.77;94.08
31092;BME280;67728;53.122;12.776;2024-03-23T01:04:51;100078.53;;;6.77;93.99
31092;BME280;67728;53.122;12.776;2024-03-23T01:06:21;100080.34;;;6.77;94.01
31092;BME280;67728;53.122;12.776;2024-03-23T01:07:53;100081.31;;;6.76;93.96
31092;BME280;67728;53.122;12.776;2024-03-23T01:09:25;100083.00;;;6.77;93.91
31092;BME280;67728;53.122;12.776;2024-03-23T01:10:55;100080.34;;;6.77;94.12
31092;BME280;67728;53.122;12.776;2024-03-23T01:12:27;100069.81;;;6.75;94.34
31092;BME280;67728;53.122;12.776;2024-03-23T01:13:58;100061.81;;;6.75;93.97
31092;BME280;67728;53.122;12.776;2024-03-23T01:15:28;100064.59;;;6.74;94.23
31092;BME280;67728;53.122;12.776;2024-03-23T01:17:00;100055.66;;;6.75;93.83
31092;BME280;67728;53.122;12.776;2024-03-23T01:18:30;100053.94;;;6.74;93.93
31092;BME280;67728;53.122;12.776;2024-03-23T01:20:01;100050.44;;;6.73;93.78
31092;BME280;67728;53.122;12.776;2024-03-23T01:21:33;100048.75;;;6.72;94.09
31092;BME280;67728;53.122;12.776;2024-03-23T01:23:04;100049.59;;;6.73;94.14
31092;BME280;67728;53.122;12.776;2024-03-23T01:24:36;100039.09;;;6.71;94.09
31092;BME280;67728;53.122;12.776;2024-03-23T01:26:07;100038.09;;;6.72;94.12
31092;BME280;67728;53.122;12.776;2024-03-23T01:27:38;100025.78;;;6.71;93.95
31092;BME280;67728;53.122;12.776;2024-03-23T01:29:08;100025.78;;;6.71;94.26
31092;BME280;67728;53.122;12.776;2024-03-23T01:30:40;100036.28;;;6.73;94.26
31092;BME280;67728;53.122;12.776;2024-03-23T01:32:10;100029.28;;;6.72;94.23
31092;BME280;67728;53.122;12.776;2024-03-23T01:33:41;100028.28;;;6.73;94.43
31092;BME280;67728;53.122;12.776;2024-03-23T01:35:13;100021.28;;;6.72;94.25
31092;BME280;67728;53.122;12.776;2024-03-23T01:36:43;100017.78;;;6.71;94.32
31092;BME280;67728;53.122;12.776;2024-03-23T01:38:14;100024.06;;;6.70;94.05
31092;BME280;67728;53.122;12.776;2024-03-23T01:39:47;100008.94;;;6.71;94.25
31092;BME280;67728;53.122;12.776;2024-03-23T01:41:17;100014.13;;;6.72;94.17
31092;BME280;67728;53.122;12.776;2024-03-23T01:42:57;100014.28;;;6.71;94.29
31092;BME280;67728;53.122;12.776;2024-03-23T01:44:29;100000.97;;;6.71;94.16
31092;BME280;67728;53.122;12.776;2024-03-23T01:46:00;100002.78;;;6.70;93.86
31092;BME280;67728;53.122;12.776;2024-03-23T01:47:31;99999.25;;;6.70;94.04
31092;BME280;67728;53.122;12.776;2024-03-23T01:49:02;99995.63;;;6.71;94.21
31092;BME280;67728;53.122;12.776;2024-03-23T01:50:34;99995.63;;;6.71;94.46
31092;BME280;67728;53.122;12.776;2024-03-23T01:52:06;100000.13;;;6.70;94.28
31092;BME280;67728;53.122;12.776;2024-03-23T01:53:37;99998.31;;;6.71;94.33
31092;BME280;67728;53.122;12.776;2024-03-23T01:55:09;99996.50;;;6.71;93.96
31092;BME280;67728;53.122;12.776;2024-03-23T01:56:41;99996.50;;;6.71;94.26
31092;BME280;67728;53.122;12.776;2024-03-23T01:58:12;99992.00;;;6.72;94.02
31092;BME280;67728;53.122;12.776;2024-03-23T01:59:43;99990.16;;;6.72;94.05
31092;BME280;67728;53.122;12.776;2024-03-23T02:01:14;99978.81;;;6.70;94.14
31092;BME280;67728;53.122;12.776;2024-03-23T02:02:45;99985.00;;;6.71;93.96
31092;BME280;67728;53.122;12.776;2024-03-23T02:04:16;99993.81;;;6.71;94.30
31092;BME280;67728;53.122;12.776;2024-03-23T02:05:47;99992.97;;;6.71;93.95
31092;BME280;67728;53.122;12.776;2024-03-23T02:07:18;99992.13;;;6.70;94.10
31092;BME280;67728;53.122;12.776;2024-03-23T02:08:50;99988.50;;;6.71;94.22
31092;BME280;67728;53.122;12.776;2024-03-23T02:10:22;99990.31;;;6.71;94.38
31092;BME280;67728;53.122;12.776;2024-03-23T02:11:52;99983.19;;;6.71;94.16
31092;BME280;67728;53.122;12.776;2024-03-23T02:13:24;99989.34;;;6.72;94.51
31092;BME280;67728;53.122;12.776;2024-03-23T02:14:55;99978.81;;;6.70;94.19
31092;BME280;67728;53.122;12.776;2024-03-23T02:16:25;99974.34;;;6.71;94.36
31092;BME280;67728;53.122;12.776;2024-03-23T02:17:57;99984.84;;;6.72;94.12
31092;BME280;67728;53.122;12.776;2024-03-23T02:19:28;99976.03;;;6.72;94.19
31092;BME280;67728;53.122;12.776;2024-03-23T02:20:58;99972.38;;;6.73;94.02
31092;BME280;67728;53.122;12.776;2024-03-23T02:22:35;99976.84;;;6.72;94.41
31092;BME280;67728;53.122;12.776;2024-03-23T02:24:08;99974.19;;;6.72;94.35
31092;BME280;67728;53.122;12.776;2024-03-23T02:25:38;99973.22;;;6.73;94.15
31092;BME280;67728;53.122;12.776;2024-03-23T02:27:10;99974.19;;;6.72;93.87
31092;BME280;67728;53.122;12.776;2024-03-23T02:28:40;99974.34;;;6.71;94.09
31092;BME280;67728;53.122;12.776;2024-03-23T02:30:12;99965.38;;;6.72;94.36
31092;BME280;67728;53.122;12.776;2024-03-23T02:31:43;99961.88;;;6.71;94.06
31092;BME280;67728;53.122;12.776;2024-03-23T02:33:13;99959.22;;;6.71;93.85
31092;BME280;67728;53.122;12.776;2024-03-23T02:34:45;99964.53;;;6.71;93.99
31092;BME280;67728;53.122;12.776;2024-03-23T02:36:15;99966.34;;;6.71;94.01
31092;BME280;67728;53.122;12.776;2024-03-23T02:37:46;99957.53;;;6.70;93.75
31092;BME280;67728;53.122;12.776;2024-03-23T02:39:19;99969.97;;;6.70;94.09
31092;BME280;67728;53.122;12.776;2024-03-23T02:40:50;99954.97;;;6.69;93.84
31092;BME280;67728;53.122;12.776;2024-03-23T02:42:22;99962.09;;;6.68;93.94
31092;BME280;67728;53.122;12.776;2024-03-23T02:43:52;99951.47;;;6.68;94.03
31092;BME280;67728;53.122;12.776;2024-03-23T02:45:23;99950.75;;;6.66;93.95
31092;BME280;67728;53.122;12.776;2024-03-23T02:46:55;99949.91;;;6.66;94.00
31092;BME280;67728;53.122;12.776;2024-03-23T02:48:25;99943.97;;;6.62;93.75
31092;BME280;67728;53.122;12.776;2024-03-23T02:49:57;99939.50;;;6.62;94.06
31092;BME280;67728;53.122;12.776;2024-03-23T02:51:27;99945.66;;;6.63;93.82
31092;BME280;67728;53.122;12.776;2024-03-23T02:52:58;99935.88;;;6.63;93.67
31092;BME280;67728;53.122;12.776;2024-03-23T02:54:31;99929.69;;;6.63;93.96
31092;BME280;67728;53.122;12.776;2024-03-23T02:56:02;99937.69;;;6.63;93.92
31092;BME280;67728;53.122;12.776;2024-03-23T02:57:33;99937.69;;;6.63;94.17
31092;BME280;67728;53.122;12.776;2024-03-23T02:59:05;99938.63;;;6.62;94.06
31092;BME280;67728;53.122;12.776;2024-03-23T03:00:35;99938.63;;;6.62;93.80
31092;BME280;67728;53.122;12.776;2024-03-23T03:02:06;99940.59;;;6.60;93.77
31092;BME280;67728;53.122;12.776;2024-03-23T03:03:38;99935.28;;;6.60;93.67
31092;BME280;67728;53.122;12.776;2024-03-23T03:05:08;99933.47;;;6.60;94.01
31092;BME280;67728;53.122;12.776;2024-03-23T03:06:39;99929.94;;;6.60;94.08
31092;BME280;67728;53.122;12.776;2024-03-23T03:08:11;99927.41;;;6.58;94.11
31092;BME280;67728;53.122;12.776;2024-03-23T03:09:43;99931.03;;;6.57;93.82
31092;BME280;67728;53.122;12.776;2024-03-23T03:11:14;99925.97;;;6.54;93.68
31092;BME280;67728;53.122;12.776;2024-03-23T03:12:45;99927.78;;;6.54;93.90
31092;BME280;67728;53.122;12.776;2024-03-23T03:14:16;99920.66;;;6.54;94.04
31092;BME280;67728;53.122;12.776;2024-03-23T03:15:46;99920.66;;;6.54;94.07
31092;BME280;67728;53.122;12.776;2024-03-23T03:17:18;99912.66;;;6.54;93.81
31092;BME280;67728;53.122;12.776;2024-03-23T03:18:49;99919.78;;;6.54;94.10
31092;BME280;67728;53.122;12.776;2024-03-23T03:20:20;99918.94;;;6.53;93.68
31092;BME280;67728;53.122;12.776;2024-03-23T03:21:53;99920.03;;;6.51;93.55
31092;BME280;67728;53.122;12.776;2024-03-23T03:23:24;99911.44;;;6.47;94.11
31092;BME280;67728;53.122;12.776;2024-03-23T03:25:00;99914.09;;;6.47;93.93
31092;BME280;67728;53.122;12.776;2024-03-23T03:26:32;99909.75;;;6.46;93.92
31092;BME280;67728;53.122;12.776;2024-03-23T03:28:03;99906.25;;;6.46;94.09
31092;BME280;67728;53.122;12.776;2024-03-23T03:29:34;99900.91;;;6.46;94.15
31092;BME280;67728;53.122;12.776;2024-03-23T03:31:06;99898.16;;;6.47;93.83
31092;BME280;67728;53.122;12.776;2024-03-23T03:32:36;99897.28;;;6.47;93.85
31092;BME280;67728;53.122;12.776;2024-03-23T03:34:07;99890.28;;;6.46;93.74
31092;BME280;67728;53.122;12.776;2024-03-23T03:35:39;99894.88;;;6.44;93.55
31092;BME280;67728;53.122;12.776;2024-03-23T03:37:09;99895.00;;;6.42;93.92
31092;BME280;67728;53.122;12.776;2024-03-23T03:38:41;99895.00;;;6.42;94.00
31092;BME280;67728;53.122;12.776;2024-03-23T03:40:13;99894.16;;;6.42;94.11
31092;BME280;67728;53.122;12.776;2024-03-23T03:41:45;99895.00;;;6.42;93.70
31092;BME280;67728;53.122;12.776;2024-03-23T03:43:17;99894.03;;;6.43;93.55
31092;BME280;67728;53.122;12.776;2024-03-23T03:44:47;99891.63;;;6.40;93.46
31092;BME280;67728;53.122;12.776;2024-03-23T03:46:18;99892.47;;;6.41;93.90
31092;BME280;67728;53.122;12.776;2024-03-23T03:47:49;99895.25;;;6.39;93.95
31092;BME280;67728;53.122;12.776;2024-03-23T03:49:20;99894.28;;;6.40;93.72
31092;BME280;67728;53.122;12.776;2024-03-23T03:50:51;99889.06;;;6.39;93.59
31092;BME280;67728;53.122;12.776;2024-03-23T03:52:23;99893.53;;;6.38;94.01
31092;BME280;67728;53.122;12.776;2024-03-23T03:53:54;99884.75;;;6.38;93.67
31092;BME280;67728;53.122;12.776;2024-03-23T03:55:27;99878.69;;;6.36;93.67
31092;BME280;67728;53.122;12.776;2024-03-23T03:56:58;99880.38;;;6.37;93.81
31092;BME280;67728;53.122;12.776;2024-03-23T03:58:28;99878.69;;;6.36;93.71
31092;BME280;67728;53.122;12.776;2024-03-23T04:00:00;99885.69;;;6.37;93.65
31092;BME280;67728;53.122;12.776;2024-03-23T04:01:31;99879.53;;;6.36;94.14
31092;BME280;67728;53.122;12.776;2024-03-23T04:03:01;99879.53;;;6.36;93.62
31092;BME280;67728;53.122;12.776;2024-03-23T04:04:33;99878.69;;;6.36;93.91
31092;BME280;67728;53.122;12.776;2024-03-23T04:06:04;99873.38;;;6.36;94.03
31092;BME280;67728;53.122;12.776;2024-03-23T04:07:34;99859.22;;;6.35;94.01
31092;BME280;67728;53.122;12.776;2024-03-23T04:09:06;99869.84;;;6.35;93.67
31092;BME280;67728;53.122;12.776;2024-03-23T04:10:38;99858.47;;;6.33;93.80
31092;BME280;67728;53.122;12.776;2024-03-23T04:12:09;99862.00;;;6.34;93.65
31092;BME280;67728;53.122;12.776;2024-03-23T04:13:40;99869.13;;;6.33;93.68
31092;BME280;67728;53.122;12.776;2024-03-23T04:15:11;99868.28;;;6.33;93.86
31092;BME280;67728;53.122;12.776;2024-03-23T04:16:42;99866.59;;;6.32;94.07
31092;BME280;67728;53.122;12.776;2024-03-23T04:18:14;99870.22;;;6.31;93.71
31092;BME280;67728;53.122;12.776;2024-03-23T04:19:45;99874.69;;;6.30;93.66
31092;BME280;67728;53.122;12.776;2024-03-23T04:21:16;99868.53;;;6.30;93.95
31092;BME280;67728;53.122;12.776;2024-03-23T04:22:47;99868.53;;;6.30;93.89
31092;BME280;67728;53.122;12.776;2024-03-23T04:24:18;99866.84;;;6.29;93.82
31092;BME280;67728;53.122;12.776;2024-03-23T04:25:52;99868.41;;;6.31;94.00
31092;BME280;67728;53.122;12.776;2024-03-23T04:27:24;99871.06;;;6.31;94.12
31092;BME280;67728;53.122;12.776;2024-03-23T04:28:55;99861.41;;;6.30;93.70
31092;BME280;67728;53.122;12.776;2024-03-23T04:30:26;99864.06;;;6.30;93.97
31092;BME280;67728;53.122;12.776;2024-03-23T04:31:59;99867.56;;;6.31;94.09
31092;BME280;67728;53.122;12.776;2024-03-23T04:33:31;99866.72;;;6.30;93.52
31092;BME280;67728;53.122;12.776;2024-03-23T04:35:02;99865.03;;;6.29;93.79
31092;BME280;67728;53.122;12.776;2024-03-23T04:36:36;99860.66;;;6.28;93.83
31092;BME280;67728;53.122;12.776;2024-03-23T04:38:06;99858.00;;;6.28;93.93
31092;BME280;67728;53.122;12.776;2024-03-23T04:39:38;99853.66;;;6.27;93.44
31092;BME280;67728;53.122;12.776;2024-03-23T04:41:10;99847.84;;;6.22;93.91
31092;BME280;67728;53.122;12.776;2024-03-23T04:42:41;99847.75;;;6.23;93.90
31092;BME280;67728;53.122;12.776;2024-03-23T04:44:13;99850.50;;;6.22;93.44
31092;BME280;67728;53.122;12.776;2024-03-23T04:45:44;99842.69;;;6.20;93.67
31092;BME280;67728;53.122;12.776;2024-03-23T04:47:15;99841.69;;;6.21;94.20
31092;BME280;67728;53.122;12.776;2024-03-23T04:48:47;99842.69;;;6.20;94.25
31092;BME280;67728;53.122;12.776;2024-03-23T04:50:17;99842.53;;;6.22;94.17
31092;BME280;67728;53.122;12.776;2024-03-23T04:51:49;99839.03;;;6.21;93.85
31092;BME280;67728;53.122;12.776;2024-03-23T04:53:20;99836.38;;;6.21;93.90
31092;BME280;67728;53.122;12.776;2024-03-23T04:54:52;99842.41;;;6.23;93.80
31092;BME280;67728;53.122;12.776;2024-03-23T04:56:24;99837.22;;;6.22;93.64
31092;BME280;67728;53.122;12.776;2024-03-23T04:57:55;99838.19;;;6.21;93.65
31092;BME280;67728;53.122;12.776;2024-03-23T04:59:26;99834.69;;;6.20;93.88
31092;BME280;67728;53.122;12.776;2024-03-23T05:00:57;99831.19;;;6.20;93.78
31092;BME280;67728;53.122;12.776;2024-03-23T05:02:29;99836.50;;;6.20;94.01
31092;BME280;67728;53.122;12.776;2024-03-23T05:03:59;99833.84;;;6.20;93.94
31092;BME280;67728;53.122;12.776;2024-03-23T05:05:30;99840.13;;;6.19;93.59
31092;BME280;67728;53.122;12.776;2024-03-23T05:07:01;99838.31;;;6.19;93.47
31092;BME280;67728;53.122;12.776;2024-03-23T05:08:32;99838.44;;;6.18;94.00
31092;BME280;67728;53.122;12.776;2024-03-23T05:10:04;99841.22;;;6.16;93.48
31092;BME280;67728;53.122;12.776;2024-03-23T05:11:37;99839.19;;;6.09;92.75
31092;BME280;67728;53.122;12.776;2024-03-23T05:13:07;99837.34;;;5.98;91.38
31092;BME280;67728;53.122;12.776;2024-03-23T05:14:39;99848.25;;;5.95;91.57
31092;BME280;67728;53.122;12.776;2024-03-23T05:16:09;99827.91;;;5.83;90.32
31092;BME280;67728;53.122;12.776;2024-03-23T05:17:41;99828.50;;;5.64;89.53
31092;BME280;67728;53.122;12.776;2024-03-23T05:19:12;99825.59;;;5.56;90.12
31092;BME280;67728;53.122;12.776;2024-03-23T05:20:42;99832.25;;;5.62;90.62
31092;BME280;67728;53.122;12.776;2024-03-23T05:22:14;99824.38;;;5.60;90.84
31092;BME280;67728;53.122;12.776;2024-03-23T05:23:45;99824.38;;;5.60;91.02
31092;BME280;67728;53.122;12.776;2024-03-23T05:25:15;99833.00;;;5.64;91.37
31092;BME280;67728;53.122;12.776;2024-03-23T05:26:48;99829.34;;;5.65;91.49
31092;BME280;67728;53.122;12.776;2024-03-23T05:28:19;99830.06;;;5.67;91.46
31092;BME280;67728;53.122;12.776;2024-03-23T05:29:51;99825.50;;;5.69;91.84
31092;BME280;67728;53.122;12.776;2024-03-23T05:31:24;99829.72;;;5.71;91.60
31092;BME280;67728;53.122;12.776;2024-03-23T05:32:55;99823.31;;;5.74;91.62
31092;BME280;67728;53.122;12.776;2024-03-23T05:34:27;99829.50;;;5.74;92.49
31092;BME280;67728;53.122;12.776;2024-03-23T05:36:00;99819.56;;;5.76;91.70
31092;BME280;67728;53.122;12.776;2024-03-23T05:37:31;99822.09;;;5.78;92.38
31092;BME280;67728;53.122;12.776;2024-03-23T05:39:04;99811.47;;;5.78;92.64
31092;BME280;67728;53.122;12.776;2024-03-23T05:40:34;99811.38;;;5.79;92.11
31092;BME280;67728;53.122;12.776;2024-03-23T05:42:08;99814.72;;;5.81;92.63
31092;BME280;67728;53.122;12.776;2024-03-23T05:43:40;99818.22;;;5.82;92.82
31092;BME280;67728;53.122;12.776;2024-03-23T05:45:11;99814.50;;;5.85;92.32
31092;BME280;67728;53.122;12.776;2024-03-23T05:46:42;99818.00;;;5.85;92.24
31092;BME280;67728;53.122;12.776;2024-03-23T05:48:18;99820.56;;;5.87;92.67
31092;BME280;67728;53.122;12.776;2024-03-23T05:49:49;99822.97;;;5.90;92.59
31092;BME280;67728;53.122;12.776;2024-03-23T05:51:22;99821.06;;;5.92;93.09
31092;BME280;67728;53.122;12.776;2024-03-23T05:52:52;99819.25;;;5.92;92.92
31092;BME280;67728;53.122;12.776;2024-03-23T05:54:23;99811.97;;;5.94;93.15
31092;BME280;67728;53.122;12.776;2024-03-23T05:56:00;99812.84;;;5.95;93.13
31092;BME280;67728;53.122;12.776;2024-03-23T05:57:35;99810.91;;;5.97;93.41
31092;BME280;67728;53.122;12.776;2024-03-23T05:59:05;99801.13;;;5.97;93.43
31092;BME280;67728;53.122;12.776;2024-03-23T06:00:37;99805.44;;;5.98;92.84
31092;BME280;67728;53.122;12.776;2024-03-23T06:02:08;99802.66;;;6.00;92.95
31092;BME280;67728;53.122;12.776;2024-03-23T06:03:40;99809.69;;;6.01;93.18
31092;BME280;67728;53.122;12.776;2024-03-23T06:05:14;99805.22;;;6.01;93.08
31092;BME280;67728;53.122;12.776;2024-03-23T06:06:45;99812.22;;;6.02;93.29
31092;BME280;67728;53.122;12.776;2024-03-23T06:08:15;99817.53;;;6.02;93.23
31092;BME280;67728;53.122;12.776;2024-03-23T06:09:47;99815.75;;;6.03;93.43
31092;BME280;67728;53.122;12.776;2024-03-23T06:11:18;99800.84;;;6.00;93.00
31092;BME280;67728;53.122;12.776;2024-03-23T06:12:50;99796.66;;;5.98;92.74
31092;BME280;67728;53.122;12.776;2024-03-23T06:14:22;99802.09;;;5.96;92.07
31092;BME280;67728;53.122;12.776;2024-03-23T06:15:52;99804.00;;;5.94;92.17
31092;BME280;67728;53.122;12.776;2024-03-23T06:17:23;99800.38;;;5.95;92.15
31092;BME280;67728;53.122;12.776;2024-03-23T06:18:55;99803.88;;;5.96;92.12
31092;BME280;67728;53.122;12.776;2024-03-23T06:20:25;99803.03;;;5.95;91.87
31092;BME280;67728;53.122;12.776;2024-03-23T06:21:57;99794.22;;;5.95;92.34
31092;BME280;67728;53.122;12.776;2024-03-23T06:23:28;99801.34;;;5.94;92.11
31092;BME280;67728;53.122;12.776;2024-03-23T06:24:59;99796.28;;;5.91;91.89
31092;BME280;67728;53.122;12.776;2024-03-23T06:26:30;99786.63;;;5.90;91.60
31092;BME280;67728;53.122;12.776;2024-03-23T06:28:02;99800.03;;;5.89;90.82
31092;BME280;67728;53.122;12.776;2024-03-23T06:29:34;99794.09;;;5.85;91.53
31092;BME280;67728;53.122;12.776;2024-03-23T06:31:08;99795.78;;;5.86;91.03
31092;BME280;67728;53.122;12.776;2024-03-23T06:32:39;99794.09;;;5.85;90.96
31092;BME280;67728;53.122;12.776;2024-03-23T06:34:11;99786.97;;;5.86;91.08
31092;BME280;67728;53.122;12.776;2024-03-23T06:35:41;99781.75;;;5.84;91.34
31092;BME280;67728;53.122;12.776;2024-03-23T06:37:13;99794.31;;;5.82;91.06
31092;BME280;67728;53.122;12.776;2024-03-23T06:38:44;99795.28;;;5.81;90.83
31092;BME280;67728;53.122;12.776;2024-03-23T06:40:15;99791.78;;;5.80;90.38
31092;BME280;67728;53.122;12.776;2024-03-23T06:41:52;99792.28;;;5.74;90.24
31092;BME280;67728;53.122;12.776;2024-03-23T06:43:24;99784.63;;;5.70;91.05
31092;BME280;67728;53.122;12.776;2024-03-23T06:44:54;99788.28;;;5.69;91.24
31092;BME280;67728;53.122;12.776;2024-03-23T06:46:26;99792.75;;;5.68;90.73
31092;BME280;67728;53.122;12.776;2024-03-23T06:47:56;99789.13;;;5.69;91.04
31092;BME280;67728;53.122;12.776;2024-03-23T06:49:28;99790.69;;;5.72;90.89
31092;BME280;67728;53.122;12.776;2024-03-23T06:50:59;99788.78;;;5.74;90.71
31092;BME280;67728;53.122;12.776;2024-03-23T06:52:30;99786.69;;;5.77;90.78
31092;BME280;67728;53.122;12.776;2024-03-23T06:54:02;99792.88;;;5.78;90.91
31092;BME280;67728;53.122;12.776;2024-03-23T06:55:34;99785.63;;;5.80;90.78
31092;BME280;67728;53.122;12.776;2024-03-23T06:57:05;99784.16;;;5.76;89.64
31092;BME280;67728;53.122;12.776;2024-03-23T06:58:37;99778.84;;;5.76;89.97
31092;BME280;67728;53.122;12.776;2024-03-23T07:00:10;99777.66;;;5.80;89.47
31092;BME280;67728;53.122;12.776;2024-03-23T07:01:41;99776.91;;;5.78;89.89
31092;BME280;67728;53.122;12.776;2024-03-23T07:03:12;99772.19;;;5.81;89.76
31092;BME280;67728;53.122;12.776;2024-03-23T07:04:44;99766.88;;;5.81;90.00
31092;BME280;67728;53.122;12.776;2024-03-23T07:06:15;99755.28;;;5.82;90.47
31092;BME280;67728;53.122;12.776;2024-03-23T07:07:45;99751.78;;;5.82;89.51
31092;BME280;67728;53.122;12.776;2024-03-23T07:09:17;99755.06;;;5.86;89.73
31092;BME280;67728;53.122;12.776;2024-03-23T07:10:48;99761.84;;;5.90;90.36
31092;BME280;67728;53.122;12.776;2024-03-23T07:12:18;99761.47;;;5.94;90.12
31092;BME280;67728;53.122;12.776;2024-03-23T07:13:53;99752.41;;;5.97;90.09
31092;BME280;67728;53.122;12.776;2024-03-23T07:15:25;99760.13;;;6.00;89.69
31092;BME280;67728;53.122;12.776;2024-03-23T07:16:55;99767.03;;;6.02;89.67
31092;BME280;67728;53.122;12.776;2024-03-23T07:18:27;99761.44;;;6.05;90.09
31092;BME280;67728;53.122;12.776;2024-03-23T07:19:57;99757.81;;;6.06;89.98
31092;BME280;67728;53.122;12.776;2024-03-23T07:21:28;99757.72;;;6.08;90.30
31092;BME280;67728;53.122;12.776;2024-03-23T07:23:00;99756.47;;;6.12;89.84
31092;BME280;67728;53.122;12.776;2024-03-23T07:24:30;99757.22;;;6.14;89.59
31092;BME280;67728;53.122;12.776;2024-03-23T07:26:03;99756.94;;;6.17;89.88
31092;BME280;67728;53.122;12.776;2024-03-23T07:27:35;99757.91;;;6.16;89.41
31092;BME280;67728;53.122;12.776;2024-03-23T07:29:07;99752.47;;;6.17;89.90
31092;BME280;67728;53.122;12.776;2024-03-23T07:30:39;99753.22;;;6.19;89.97
31092;BME280;67728;53.122;12.776;2024-03-23T07:32:10;99755.88;;;6.19;89.47
31092;BME280;67728;53.122;12.776;2024-03-23T07:33:42;99753.22;;;6.19;89.50
31092;BME280;67728;53.122;12.776;2024-03-23T07:35:14;99750.53;;;6.19;89.34
31092;BME280;67728;53.122;12.776;2024-03-23T07:36:45;99753.22;;;6.19;89.84
31092;BME280;67728;53.122;12.776;2024-03-23T07:38:16;99749.59;;;6.20;89.56
31092;BME280;67728;53.122;12.776;2024-03-23T07:39:47;99748.59;;;6.21;89.61
31092;BME280;67728;53.122;12.776;2024-03-23T07:41:20;99745.94;;;6.21;89.03
31092;BME280;67728;53.122;12.776;2024-03-23T07:42:51;99745.94;;;6.21;88.98
31092;BME280;67728;53.122;12.776;2024-03-23T07:44:24;99744.84;;;6.24;89.53
31092;BME280;67728;53.122;12.776;2024-03-23T07:45:55;99742.31;;;6.22;89.25
31092;BME280;67728;53.122;12.776;2024-03-23T07:47:26;99740.38;;;6.25;89.24
31092;BME280;67728;53.122;12.776;2024-03-23T07:48:57;99741.47;;;6.22;88.71
31092;BME280;67728;53.122;12.776;2024-03-23T07:50:28;99740.50;;;6.23;88.92
31092;BME280;67728;53.122;12.776;2024-03-23T07:51:58;99740.59;;;6.21;88.91
31092;BME280;67728;53.122;12.776;2024-03-23T07:53:31;99752.81;;;6.24;89.32
31092;BME280;67728;53.122;12.776;2024-03-23T07:55:01;99745.69;;;6.25;89.49
31092;BME280;67728;53.122;12.776;2024-03-23T07:56:33;99743.72;;;6.27;89.62
31092;BME280;67728;53.122;12.776;2024-03-23T07:58:04;99741.06;;;6.27;89.72
31092;BME280;67728;53.122;12.776;2024-03-23T07:59:36;99732.97;;;6.28;89.81
31092;BME280;67728;53.122;12.776;2024-03-23T08:01:10;99728.38;;;6.30;89.61
31092;BME280;67728;53.122;12.776;2024-03-23T08:02:40;99718.59;;;6.31;89.13
31092;BME280;67728;53.122;12.776;2024-03-23T08:04:12;99725.72;;;6.30;89.26
31092;BME280;67728;53.122;12.776;2024-03-23T08:05:43;99728.25;;;6.32;89.51
31092;BME280;67728;53.122;12.776;2024-03-23T08:07:13;99728.13;;;6.33;89.45
31092;BME280;67728;53.122;12.776;2024-03-23T08:08:46;99728.97;;;6.34;89.11
31092;BME280;67728;53.122;12.776;2024-03-23T08:10:17;99725.44;;;6.33;89.49
31092;BME280;67728;53.122;12.776;2024-03-23T08:11:48;99725.44;;;6.33;89.14
31092;BME280;67728;53.122;12.776;2024-03-23T08:13:20;99716.91;;;6.30;88.67
31092;BME280;67728;53.122;12.776;2024-03-23T08:14:52;99709.75;;;6.30;89.48
31092;BME280;67728;53.122;12.776;2024-03-23T08:16:23;99713.97;;;6.33;89.07
31092;BME280;67728;53.122;12.776;2024-03-23T08:17:55;99717.63;;;6.32;89.23
31092;BME280;67728;53.122;12.776;2024-03-23T08:19:25;99720.00;;;6.35;89.34
31092;BME280;67728;53.122;12.776;2024-03-23T08:20:56;99709.38;;;6.35;89.13
31092;BME280;67728;53.122;12.776;2024-03-23T08:22:28;99710.09;;;6.37;89.59
31092;BME280;67728;53.122;12.776;2024-03-23T08:23:59;99708.13;;;6.39;89.84
31092;BME280;67728;53.122;12.776;2024-03-23T08:25:30;99710.56;;;6.42;89.76
31092;BME280;67728;53.122;12.776;2024-03-23T08:27:01;99721.91;;;6.44;89.42
31092;BME280;67728;53.122;12.776;2024-03-23T08:28:35;99712.84;;;6.46;89.86
31092;BME280;67728;53.122;12.776;2024-03-23T08:30:08;99713.56;;;6.48;89.67
31092;BME280;67728;53.122;12.776;2024-03-23T08:31:39;99712.44;;;6.51;89.55
31092;BME280;67728;53.122;12.776;2024-03-23T08:33:10;99711.25;;;6.55;89.75
31092;BME280;67728;53.122;12.776;2024-03-23T08:34:41;99706.72;;;6.55;89.79
31092;BME280;67728;53.122;12.776;2024-03-23T08:36:11;99704.91;;;6.56;89.46
31092;BME280;67728;53.122;12.776;2024-03-23T08:37:44;99706.63;;;6.57;89.32
31092;BME280;67728;53.122;12.776;2024-03-23T08:39:15;99699.34;;;6.59;89.53
31092;BME280;67728;53.122;12.776;2024-03-23T08:40:45;99696.56;;;6.60;89.47
31092;BME280;67728;53.122;12.776;2024-03-23T08:42:17;99700.78;;;6.63;89.20
31092;BME280;67728;53.122;12.776;2024-03-23T08:43:47;99697.03;;;6.66;89.26
31092;BME280;67728;53.122;12.776;2024-03-23T08:45:19;99699.28;;;6.70;89.45
31092;BME280;67728;53.122;12.776;2024-03-23T08:46:51;99693.56;;;6.75;89.25
31092;BME280;67728;53.122;12.776;2024-03-23T08:48:22;99700.31;;;6.79;89.48
31092;BME280;67728;53.122;12.776;2024-03-23T08:49:52;99704.56;;;6.81;89.25
31092;BME280;67728;53.122;12.776;2024-03-23T08:51:24;99698.09;;;6.84;89.41
31092;BME280;67728;53.122;12.776;2024-03-23T08:52:55;99705.72;;;6.88;89.14
31092;BME280;67728;53.122;12.776;2024-03-23T08:54:25;99699.41;;;6.89;88.57
31092;BME280;67728;53.122;12.776;2024-03-23T08:56:00;99685.53;;;6.86;87.87
31092;BME280;67728;53.122;12.776;2024-03-23T08:57:31;99689.03;;;6.86;87.26